Time;durP1;ratioP1;P1;durP2;ratioP2;P2;SDS_P1;SDS_P2;PMS_P1;PMS_P2;Temp;Humidity;BMP_temperature;BMP_pressure;BME280_temperature;BME280_humidity;BME280_pressure;Samples;Min_cycle;Max_cycle;Signal;HPM_P1;HPM_P2
2023/01/04 00:02:23;;;;;;;9.10;6.80;;;;;;;9.20;100.00;62939.25;5008438;28;20223;-80
2023/01/04 00:04:50;;;;;;;8.55;6.53;;;;;;;9.25;100.00;62949.50;5012078;28;20199;-80
2023/01/04 00:07:17;;;;;;;9.88;8.07;;;;;;;9.23;100.00;62950.50;5010655;28;20421;-79
2023/01/04 00:09:44;;;;;;;7.72;6.93;;;;;;;9.10;100.00;62937.06;5008457;28;20211;-81
2023/01/04 00:12:11;;;;;;;10.25;7.93;;;;;;;9.14;100.00;62935.59;5008993;28;20234;-80
2023/01/04 00:14:38;;;;;;;8.02;7.15;;;;;;;9.00;100.00;62926.72;5010278;28;20195;-82
2023/01/04 00:17:06;;;;;;;8.75;6.28;;;;;;;9.10;100.00;62939.06;5010262;28;20536;-80
2023/01/04 00:19:33;;;;;;;8.68;6.60;;;;;;;9.05;100.00;62928.84;5009613;28;20207;-79
2023/01/04 00:22:00;;;;;;;6.78;6.07;;;;;;;8.95;100.00;62918.50;5007947;28;20227;-79
2023/01/04 00:24:27;;;;;;;10.82;7.25;;;;;;;9.04;100.00;62933.38;5008520;28;20214;-80
2023/01/04 00:26:54;;;;;;;7.43;6.57;;;;;;;9.04;100.00;62925.28;5006070;28;20287;-81
2023/01/04 00:29:21;;;;;;;9.02;7.25;;;;;;;9.01;100.00;62927.22;5008747;28;20235;-81
2023/01/04 00:31:48;;;;;;;5.55;5.13;;;;;;;9.00;100.00;62926.22;5009838;28;20219;-79
2023/01/04 00:34:18;;;;;;;8.95;6.32;;;;;;;9.04;100.00;62928.31;5009972;28;20195;-80
2023/01/04 00:36:46;;;;;;;8.45;6.43;;;;;;;9.01;100.00;62927.75;5000989;28;20215;-83
2023/01/04 00:39:15;;;;;;;7.88;7.07;;;;;;;8.89;100.00;62914.84;5010014;28;20195;-80
2023/01/04 00:41:44;;;;;;;6.78;5.90;;;;;;;9.03;100.00;62927.28;5008142;28;20235;-79
2023/01/04 00:44:12;;;;;;;11.15;6.70;;;;;;;8.93;100.00;62921.50;5007822;28;20200;-81
2023/01/04 00:46:40;;;;;;;9.30;6.55;;;;;;;8.93;100.00;62919.50;5008400;28;20250;-78
2023/01/04 00:49:09;;;;;;;8.20;6.43;;;;;;;8.90;100.00;62913.84;5007980;28;20231;-78
2023/01/04 00:51:39;;;;;;;8.02;6.32;;;;;;;8.83;100.00;62908.63;5005932;28;20227;-79
2023/01/04 00:54:08;;;;;;;10.23;6.97;;;;;;;8.93;100.00;62924.06;5008634;28;20226;-79
2023/01/04 00:56:35;;;;;;;9.27;6.72;;;;;;;8.81;100.00;62904.03;5009034;28;20219;-81
2023/01/04 00:59:04;;;;;;;9.18;6.38;;;;;;;8.92;100.00;62915.41;5007987;28;20560;-78
2023/01/04 01:01:34;;;;;;;11.13;6.07;;;;;;;8.78;100.00;62903.47;5006579;28;20215;-78
2023/01/04 01:04:04;;;;;;;9.38;6.53;;;;;;;8.72;100.00;62897.78;5005880;28;20203;-79
2023/01/04 01:06:32;;;;;;;12.75;7.60;;;;;;;8.76;100.00;62901.94;5005519;28;20281;-79
2023/01/04 01:09:01;;;;;;;8.10;6.10;;;;;;;8.83;100.00;62906.09;5008028;28;20245;-80
2023/01/04 01:11:29;;;;;;;10.15;7.30;;;;;;;8.77;100.00;62904.97;5006165;28;20439;-81
2023/01/04 01:13:57;;;;;;;8.88;7.90;;;;;;;8.74;100.00;62899.34;5007921;28;20504;-79
2023/01/04 01:16:26;;;;;;;10.75;7.68;;;;;;;8.73;100.00;62901.34;5008413;28;20243;-80
2023/01/04 01:18:54;;;;;;;7.03;6.30;;;;;;;8.70;100.00;62895.72;5006614;28;20270;-80
2023/01/04 01:21:23;;;;;;;11.77;7.38;;;;;;;8.73;100.00;62895.78;5007593;28;20291;-79
2023/01/04 01:23:50;;;;;;;10.40;7.65;;;;;;;8.74;100.00;62894.25;5008796;28;20222;-79
2023/01/04 01:26:22;;;;;;;9.35;8.43;;;;;;;8.62;100.00;62887.47;5009038;28;20227;-80
2023/01/04 01:28:50;;;;;;;12.07;7.03;;;;;;;8.61;100.00;62880.84;5007130;28;20203;-80
2023/01/04 01:31:19;;;;;;;12.02;7.38;;;;;;;8.46;100.00;62870.41;5005799;28;20219;-80
2023/01/04 01:33:50;;;;;;;8.50;7.50;;;;;;;8.61;100.00;62883.88;5007297;28;20507;-82
2023/01/04 01:36:19;;;;;;;9.40;7.85;;;;;;;8.54;100.00;62876.66;5008165;28;20215;-82
2023/01/04 01:38:47;;;;;;;10.48;8.20;;;;;;;8.53;100.00;62875.09;5002112;28;20210;-82
2023/01/04 01:41:20;;;;;;;9.85;7.90;;;;;;;8.51;100.00;62881.16;4988363;28;20248;-80
2023/01/04 01:43:55;;;;;;;8.98;7.53;;;;;;;8.54;100.00;62878.69;5003854;28;20227;-79
2023/01/04 01:46:29;;;;;;;9.35;7.40;;;;;;;8.59;100.00;62886.91;5007426;28;20219;-80
2023/01/04 01:49:00;;;;;;;12.32;8.07;;;;;;;8.63;100.00;62887.97;5007773;28;20204;-80
2023/01/04 01:51:28;;;;;;;8.68;7.80;;;;;;;8.59;100.00;62883.84;5008489;28;20215;-80
2023/01/04 01:54:04;;;;;;;9.05;7.07;;;;;;;8.50;100.00;62869.47;5007770;28;20257;-80
2023/01/04 01:56:37;;;;;;;13.18;8.32;;;;;;;8.51;100.00;62873.53;5006940;28;20223;-80
2023/01/04 01:59:05;;;;;;;12.82;7.43;;;;;;;8.52;100.00;62879.16;5006740;28;20211;-80
2023/01/04 02:01:33;;;;;;;9.07;8.18;;;;;;;8.56;100.00;62881.25;5007514;28;20274;-80
2023/01/04 02:04:01;;;;;;;10.40;8.07;;;;;;;8.49;100.00;62874.00;5008447;28;20239;-79
2023/01/04 02:06:32;;;;;;;10.70;8.13;;;;;;;8.45;100.00;62869.91;5007655;28;20285;-79
2023/01/04 02:09:02;;;;;;;9.85;8.63;;;;;;;8.38;100.00;62859.59;5001911;28;20367;-78
2023/01/04 02:11:29;;;;;;;11.90;8.60;;;;;;;8.34;100.00;62858.53;5007671;28;20219;-79
2023/01/04 02:17:09;;;;;;;10.95;8.43;;;;;;;8.37;100.00;62859.09;4989965;28;20234;-80
2023/01/04 02:20:09;;;;;;;12.02;8.18;;;;;;;8.35;100.00;62859.56;4988735;28;20219;-79
2023/01/04 02:23:12;;;;;;;11.50;7.90;;;;;;;8.39;100.00;62865.72;4979402;28;20251;-80
2023/01/04 02:26:32;;;;;;;10.13;7.68;;;;;;;8.39;100.00;62861.16;4988805;28;20224;-81
2023/01/04 02:32:01;;;;;;;10.13;8.07;;;;;;;8.34;100.00;62858.00;5127349;27;20808;-79
2023/01/04 02:34:37;;;;;;;8.25;7.43;;;;;;;8.35;100.00;62859.56;5108434;28;20200;-80
2023/01/04 02:37:11;;;;;;;12.18;7.88;;;;;;;8.31;100.00;62854.91;5105737;28;20216;-79
2023/01/04 02:39:46;;;;;;;8.73;7.65;;;;;;;8.27;100.00;62845.69;5107220;28;20202;-79
2023/01/04 02:42:21;;;;;;;9.07;7.15;;;;;;;8.24;100.00;62843.13;5118299;28;20224;-78
2023/01/04 02:44:52;;;;;;;12.23;7.95;;;;;;;8.22;100.00;62843.56;5106056;28;20187;-79
2023/01/04 02:50:31;;;;;;;14.90;8.60;;;;;;;8.11;100.00;62835.25;5108778;28;20295;-79
2023/01/04 02:53:00;;;;;;;14.93;8.90;;;;;;;8.03;100.00;62824.47;5087778;28;20232;-81
2023/01/04 02:55:39;;;;;;;11.80;8.80;;;;;;;8.01;100.00;62819.34;5085692;28;20221;-81
2023/01/04 02:58:13;;;;;;;16.63;8.52;;;;;;;8.05;100.00;62826.53;5083866;28;20207;-80
2023/01/04 03:06:42;;;;;;;11.95;8.93;;;;;;;7.93;100.00;62816.69;5084216;28;20243;-79
2023/01/04 03:09:14;;;;;;;13.40;9.90;;;;;;;7.89;100.00;62812.03;5083865;28;20185;-81
2023/01/04 03:14:33;;;;;;;17.17;10.70;;;;;;;7.63;100.00;62780.63;5102193;28;20178;-79
2023/01/04 03:17:04;;;;;;;15.23;10.10;;;;;;;7.44;100.00;62760.53;5102055;28;20220;-79
2023/01/04 03:36:41;;;;;;;16.40;10.70;;;;;;;7.33;100.00;62754.75;5100502;28;20223;-80
2023/01/04 03:50:39;;;;;;;16.60;11.20;;;;;;;7.14;100.00;62729.56;5007477;28;20257;-79
2023/01/04 03:53:08;;;;;;;15.23;11.45;;;;;;;7.13;100.00;62731.56;5038575;28;20197;-79
2023/01/04 03:55:37;;;;;;;23.65;12.38;;;;;;;7.00;100.00;62715.63;5081766;28;20200;-80
2023/01/04 03:58:04;;;;;;;15.85;11.05;;;;;;;6.90;100.00;62710.88;5088596;28;20539;-78
2023/01/04 04:00:33;;;;;;;15.30;11.05;;;;;;;6.96;100.00;62716.56;5088364;28;20192;-79
2023/01/04 04:03:11;;;;;;;19.75;12.30;;;;;;;6.96;100.00;62716.56;5087987;28;20211;-79
2023/01/04 04:08:28;;;;;;;18.80;12.95;;;;;;;6.92;100.00;62712.97;5069244;28;20216;-79
2023/01/04 04:11:28;;;;;;;20.17;13.27;;;;;;;6.79;100.00;62697.03;5069040;28;20567;-79
2023/01/04 04:13:44;;;;;;;17.63;11.88;;;;;;;6.90;100.00;62712.91;5080449;28;20193;-80
2023/01/04 04:16:11;;;;;;;17.60;12.25;;;;;;;6.85;100.00;62703.19;5087835;28;20318;-79
2023/01/04 04:18:38;;;;;;;19.33;12.43;;;;;;;6.66;100.00;62683.59;5088538;28;20273;-79
2023/01/04 04:21:05;;;;;;;16.77;11.10;;;;;;;6.73;100.00;62693.34;5090055;28;20223;-79
2023/01/04 04:23:34;;;;;;;16.63;10.27;;;;;;;6.68;100.00;62685.16;5085797;28;20204;-78
2023/01/04 04:26:01;;;;;;;16.85;11.07;;;;;;;6.71;100.00;62688.75;5087240;28;20231;-78
2023/01/04 04:28:28;;;;;;;18.92;12.75;;;;;;;6.76;100.00;62696.47;5088511;28;20393;-80
2023/01/04 04:30:56;;;;;;;16.80;12.25;;;;;;;6.71;100.00;62688.75;5085726;28;20232;-78
2023/01/04 04:33:22;;;;;;;16.50;11.70;;;;;;;6.79;100.00;62699.56;5087439;28;20260;-79
2023/01/04 04:35:51;;;;;;;16.65;12.63;;;;;;;6.81;100.00;62701.09;5089765;28;20412;-79
2023/01/04 04:38:18;;;;;;;18.38;11.65;;;;;;;6.81;100.00;62701.63;5086381;28;20262;-82
2023/01/04 04:43:32;;;;;;;18.30;11.90;;;;;;;6.89;100.00;62704.28;5088227;28;20230;-79
2023/01/04 04:45:59;;;;;;;18.95;12.23;;;;;;;6.92;100.00;62712.97;5087311;28;20274;-79
2023/01/04 04:48:26;;;;;;;16.52;11.00;;;;;;;6.86;100.00;62706.25;5088866;28;20223;-81
2023/01/04 04:50:53;;;;;;;17.20;11.07;;;;;;;6.88;100.00;62711.38;5067248;28;20245;-80
2023/01/04 04:53:20;;;;;;;17.48;11.52;;;;;;;6.89;100.00;62706.81;5066220;28;20323;-79
2023/01/04 04:55:50;;;;;;;14.82;11.13;;;;;;;6.64;100.00;62681.03;5068094;28;20277;-81
2023/01/04 04:58:18;;;;;;;16.40;11.52;;;;;;;6.85;100.00;62703.19;5068047;28;20391;-79
2023/01/04 05:00:45;;;;;;;17.92;12.00;;;;;;;6.88;100.00;62701.25;5067532;28;20485;-80
2023/01/04 05:03:12;;;;;;;20.63;13.32;;;;;;;6.85;100.00;62702.69;5069014;28;20220;-81
2023/01/04 05:05:39;;;;;;;20.63;12.60;;;;;;;6.73;100.00;62692.84;5066875;28;20205;-79
2023/01/04 05:08:06;;;;;;;21.15;12.13;;;;;;;6.78;100.00;62698.00;5067185;28;20216;-80
2023/01/04 05:10:33;;;;;;;18.65;13.13;;;;;;;6.73;100.00;62688.28;5068009;28;20293;-80
2023/01/04 05:13:00;;;;;;;16.55;12.52;;;;;;;6.76;100.00;62701.00;5067763;28;20197;-81
2023/01/04 05:15:29;;;;;;;21.38;13.35;;;;;;;6.82;100.00;62705.19;5076353;28;20254;-81
2023/01/04 05:17:56;;;;;;;22.38;13.75;;;;;;;6.88;100.00;62705.78;5066463;28;20201;-79
2023/01/04 05:20:23;;;;;;;22.88;13.25;;;;;;;6.95;100.00;62713.50;5066274;28;20212;-80
2023/01/04 05:22:50;;;;;;;21.77;13.40;;;;;;;6.98;100.00;62719.16;5066194;28;20558;-78
2023/01/04 05:25:17;;;;;;;21.60;13.80;;;;;;;7.05;100.00;62723.31;5067101;28;20197;-79
2023/01/04 05:27:45;;;;;;;19.70;13.75;;;;;;;7.06;100.00;62724.34;5066471;28;20213;-79
2023/01/04 05:33:00;;;;;;;21.40;14.43;;;;;;;7.22;100.00;62742.88;5065553;28;20541;-77
2023/01/04 05:35:27;;;;;;;24.52;14.45;;;;;;;7.25;100.00;62746.50;5065600;28;20355;-80
2023/01/04 05:37:54;;;;;;;19.65;13.32;;;;;;;7.27;100.00;62743.50;5069490;28;20193;-78
2023/01/04 05:40:21;;;;;;;23.10;15.02;;;;;;;7.24;100.00;62745.47;5065774;28;20538;-78
2023/01/04 05:42:49;;;;;;;20.83;14.82;;;;;;;7.12;100.00;62733.09;5065816;28;20197;-80
2023/01/04 05:45:18;;;;;;;23.05;13.40;;;;;;;7.11;100.00;62731.53;5069903;28;20230;-80
2023/01/04 05:47:45;;;;;;;18.42;12.75;;;;;;;7.19;100.00;62737.25;5084355;28;20240;-80
2023/01/04 05:50:12;;;;;;;18.58;13.63;;;;;;;7.11;100.00;62731.53;5085629;28;20196;-80
2023/01/04 05:52:40;;;;;;;18.30;13.35;;;;;;;7.16;100.00;62736.69;5086954;28;20255;-80
2023/01/04 05:55:07;;;;;;;18.63;12.90;;;;;;;7.12;100.00;62728.00;5088698;28;20197;-81
2023/01/04 05:57:35;;;;;;;13.50;9.02;;;;;;;7.00;100.00;62718.16;5073094;28;20224;-79
2023/01/04 06:00:02;;;;;;;15.65;11.55;;;;;;;6.91;100.00;62709.41;5065716;28;20202;-79
2023/01/04 06:02:31;;;;;;;16.38;9.90;;;;;;;7.09;100.00;62729.47;5066776;28;20225;-80
2023/01/04 06:04:59;;;;;;;12.95;8.40;;;;;;;7.15;100.00;62736.16;5066399;28;20197;-80
2023/01/04 06:07:26;;;;;;;12.05;9.55;;;;;;;7.07;100.00;62724.88;5067148;28;20537;-79
2023/01/04 06:09:53;;;;;;;12.50;8.77;;;;;;;7.13;100.00;62733.59;5067522;28;20236;-82
2023/01/04 06:12:20;;;;;;;18.55;9.77;;;;;;;7.04;100.00;62725.34;5065867;28;20237;-79
2023/01/04 06:14:47;;;;;;;11.70;7.32;;;;;;;7.09;100.00;62726.94;5071445;28;20242;-80
2023/01/04 06:17:15;;;;;;;15.60;7.28;;;;;;;7.17;100.00;62735.72;5093005;28;20485;-80
2023/01/04 06:19:43;;;;;;;13.90;6.80;;;;;;;7.13;100.00;62728.53;5098578;28;20197;-82
2023/01/04 06:22:13;;;;;;;12.38;6.95;;;;;;;7.14;100.00;62732.63;5088096;28;20250;-79
2023/01/04 06:24:41;;;;;;;9.27;6.35;;;;;;;7.10;100.00;62731.00;5067209;28;20213;-79
2023/01/04 06:27:08;;;;;;;10.85;6.63;;;;;;;7.20;100.00;62741.31;5066470;28;20440;-80
2023/01/04 06:29:35;;;;;;;8.38;7.15;;;;;;;7.29;100.00;62750.63;5071398;28;20196;-81
2023/01/04 06:32:02;;;;;;;9.30;7.90;;;;;;;7.37;100.00;62755.84;5085624;28;20255;-80
2023/01/04 06:34:29;;;;;;;8.15;7.05;;;;;;;7.43;100.00;62765.06;5086707;28;20205;-80
2023/01/04 06:36:57;;;;;;;8.50;7.40;;;;;;;7.34;100.00;62752.72;5086681;28;20529;-80
2023/01/04 06:39:24;;;;;;;10.63;7.57;;;;;;;7.35;100.00;62751.75;5078860;28;20197;-81
2023/01/04 06:41:51;;;;;;;9.90;7.60;;;;;;;7.34;100.00;62750.19;5086071;28;20220;-79
2023/01/04 06:44:18;;;;;;;10.65;6.78;;;;;;;7.35;100.00;62756.81;5086603;28;20196;-80
2023/01/04 06:46:45;;;;;;;6.97;6.28;;;;;;;7.26;100.00;62747.00;5081083;28;20239;-81
2023/01/04 06:49:13;;;;;;;8.48;6.68;;;;;;;7.21;100.00;62739.84;5066171;28;20227;-81
2023/01/04 06:51:40;;;;;;;8.48;6.45;;;;;;;7.39;100.00;62760.41;5073242;28;20229;-82
2023/01/04 06:54:11;;;;;;;9.80;6.35;;;;;;;7.39;100.00;62758.41;5072850;28;20204;-82
2023/01/04 06:56:37;;;;;;;11.82;7.07;;;;;;;7.44;100.00;62763.06;5076888;28;20232;-80
2023/01/04 06:59:04;;;;;;;9.55;7.13;;;;;;;7.58;100.00;62780.03;5097313;28;20197;-81
2023/01/04 07:01:33;;;;;;;9.57;7.60;;;;;;;7.72;100.00;62797.53;5083245;28;20241;-80
2023/01/04 07:04:01;;;;;;;8.13;6.55;;;;;;;7.69;100.00;62791.91;5070692;28;20239;-80
2023/01/04 07:06:28;;;;;;;11.30;7.32;;;;;;;7.76;100.00;62801.16;5072235;28;20223;-82
2023/01/04 07:08:55;;;;;;;11.48;6.75;;;;;;;7.86;100.00;62808.94;5081878;28;20207;-79
2023/01/04 07:11:24;;;;;;;10.60;6.75;;;;;;;7.82;100.00;62805.31;5072641;28;20581;-80
2023/01/04 07:13:51;;;;;;;7.75;6.93;;;;;;;7.55;100.00;62774.91;5066611;28;20265;-79
2023/01/04 07:16:18;;;;;;;10.38;6.47;;;;;;;7.65;100.00;62784.72;5082168;28;20213;-82
2023/01/04 07:18:46;;;;;;;12.98;8.38;;;;;;;7.75;100.00;62795.03;5088605;28;20205;-81
2023/01/04 07:21:13;;;;;;;11.48;7.97;;;;;;;7.79;100.00;62804.75;5075191;28;20236;-77
2023/01/04 07:23:40;;;;;;;12.93;7.95;;;;;;;7.86;100.00;62803.88;5091270;28;20197;-81
2023/01/04 07:26:07;;;;;;;9.55;7.07;;;;;;;7.82;100.00;62799.72;5091681;28;20278;-82
2023/01/04 07:31:20;;;;;;;11.88;7.53;;;;;;;8.09;100.00;62835.72;5091962;28;20243;-80
2023/01/04 07:33:49;;;;;;;10.48;7.00;;;;;;;7.90;100.00;62815.59;5076794;28;20237;-82
2023/01/04 07:36:16;;;;;;;11.63;8.07;;;;;;;8.02;100.00;62825.47;5072865;28;20248;-80
2023/01/04 07:38:44;;;;;;;10.95;8.63;;;;;;;8.14;100.00;62835.31;5110641;28;20256;-82
2023/01/04 07:41:11;;;;;;;10.80;7.32;;;;;;;8.07;100.00;62833.69;5089156;28;20239;-80
2023/01/04 07:43:39;;;;;;;9.30;7.43;;;;;;;7.67;100.00;62784.78;5106613;28;20538;-81
2023/01/04 07:46:07;;;;;;;10.23;8.23;;;;;;;7.62;100.00;62781.63;5100295;28;20221;-79
2023/01/04 07:48:34;;;;;;;10.70;7.10;;;;;;;7.54;100.00;62773.38;5087503;28;20196;-79
2023/01/04 07:51:00;;;;;;;12.70;8.23;;;;;;;7.62;100.00;62786.69;5090593;28;20255;-79
2023/01/04 07:53:27;;;;;;;12.40;8.20;;;;;;;7.61;100.00;62786.19;5082028;28;20516;-81
2023/01/04 07:55:58;;;;;;;11.82;8.10;;;;;;;7.68;100.00;62787.84;5081979;28;20224;-79
2023/01/04 07:58:26;;;;;;;11.88;7.50;;;;;;;7.61;100.00;62780.59;5079279;28;20238;-81
2023/01/04 08:00:54;;;;;;;15.43;9.43;;;;;;;7.68;100.00;62788.34;5088480;28;20284;-81
2023/01/04 08:03:21;;;;;;;12.13;8.05;;;;;;;7.71;100.00;62801.59;5087497;28;20524;-80
2023/01/04 08:05:50;;;;;;;11.10;8.27;;;;;;;7.71;100.00;62788.91;5085662;28;20224;-83
2023/01/04 08:08:17;;;;;;;12.73;7.00;;;;;;;7.54;100.00;62778.94;5089959;28;20203;-79
2023/01/04 08:10:44;;;;;;;9.98;7.53;;;;;;;7.39;100.00;62758.41;5090621;28;20274;-80
2023/01/04 08:13:11;;;;;;;13.18;9.07;;;;;;;7.54;100.00;62775.91;5091240;28;20289;-81
2023/01/04 08:15:38;;;;;;;13.85;8.75;;;;;;;7.72;100.00;62791.94;5092074;28;20224;-82
2023/01/04 08:18:06;;;;;;;11.82;8.73;;;;;;;7.70;100.00;62787.88;5091842;28;20196;-80
2023/01/04 08:20:33;;;;;;;8.93;7.85;;;;;;;7.68;100.00;62788.34;5090478;28;20200;-80
2023/01/04 08:23:01;;;;;;;12.15;7.22;;;;;;;7.59;100.00;62784.09;5091419;28;20204;-80
2023/01/04 08:25:28;;;;;;;11.48;8.98;;;;;;;7.50;100.00;62772.28;5083531;28;20267;-81
2023/01/04 08:27:55;;;;;;;11.10;8.75;;;;;;;7.69;100.00;62788.84;5089209;28;20204;-80
2023/01/04 08:30:22;;;;;;;14.00;9.23;;;;;;;7.38;100.00;62756.84;5090106;28;20204;-79
2023/01/04 08:32:49;;;;;;;13.27;9.57;;;;;;;7.36;100.00;62759.84;5089005;28;20224;-81
2023/01/04 08:35:17;;;;;;;13.57;8.63;;;;;;;7.60;100.00;62785.16;5077060;28;20209;-78
2023/01/04 08:37:44;;;;;;;13.85;9.35;;;;;;;7.68;100.00;62787.84;5069456;28;20217;-80
2023/01/04 08:40:15;;;;;;;14.15;9.18;;;;;;;7.43;100.00;62764.56;5073328;28;20201;-81
2023/01/04 08:42:42;;;;;;;11.20;7.82;;;;;;;7.46;100.00;62767.63;5085780;28;20320;-82
2023/01/04 08:45:10;;;;;;;8.80;7.00;;;;;;;7.58;100.00;62780.56;5087205;28;20302;-80
2023/01/04 08:47:37;;;;;;;17.50;9.25;;;;;;;7.45;100.00;62767.13;5087886;28;20213;-80
2023/01/04 08:50:07;;;;;;;13.45;10.32;;;;;;;7.32;100.00;62753.72;5085713;28;20457;-81
2023/01/04 08:52:36;;;;;;;15.55;10.15;;;;;;;7.42;100.00;62763.53;5086011;28;20248;-80
2023/01/04 08:55:06;;;;;;;13.13;9.38;;;;;;;7.22;100.00;62737.81;5083889;28;20208;-79
2023/01/04 08:57:37;;;;;;;15.68;10.57;;;;;;;7.36;100.00;62755.31;5075309;28;20220;-81
2023/01/04 09:00:05;;;;;;;18.60;10.93;;;;;;;7.46;100.00;62765.09;5070600;28;20260;-82
2023/01/04 09:02:32;;;;;;;16.85;9.40;;;;;;;7.36;100.00;62759.84;5067835;28;20213;-83
2023/01/04 09:05:02;;;;;;;14.85;11.80;;;;;;;7.26;100.00;62744.47;5079536;28;20197;-82
2023/01/04 09:07:30;;;;;;;18.52;9.45;;;;;;;7.23;100.00;62744.41;5073658;28;20212;-82
2023/01/04 09:09:59;;;;;;;24.13;10.57;;;;;;;7.39;100.00;62755.88;5090669;28;20208;-80
2023/01/04 09:12:26;;;;;;;16.30;10.35;;;;;;;7.41;100.00;62765.53;5081842;28;20233;-83
2023/01/04 09:14:53;;;;;;;21.13;13.10;;;;;;;7.53;100.00;62774.88;5105161;28;20192;-81
2023/01/04 09:17:21;;;;;;;15.55;10.88;;;;;;;7.67;100.00;62789.84;5109805;28;20229;-82
2023/01/04 09:19:49;;;;;;;13.52;10.63;;;;;;;7.31;100.00;62752.16;5110222;28;20192;-81
2023/01/04 09:22:16;;;;;;;14.98;9.93;;;;;;;7.21;100.00;62742.38;5083176;28;20236;-84
2023/01/04 09:24:43;;;;;;;13.88;9.82;;;;;;;7.19;100.00;62737.78;5087684;28;20208;-79
2023/01/04 09:27:12;;;;;;;15.27;11.15;;;;;;;7.30;100.00;62751.13;5089594;28;20212;-81
2023/01/04 09:29:40;;;;;;;16.05;11.48;;;;;;;7.47;100.00;62766.16;5089412;28;20297;-82
2023/01/04 09:32:09;;;;;;;15.10;10.90;;;;;;;7.63;100.00;62783.19;5089953;28;20513;-82
2023/01/04 09:34:36;;;;;;;14.32;10.07;;;;;;;7.23;100.00;62746.44;5089276;28;20260;-80
2023/01/04 09:37:03;;;;;;;12.15;10.02;;;;;;;7.00;100.00;62715.63;5090843;28;20235;-81
2023/01/04 09:39:31;;;;;;;14.00;10.60;;;;;;;6.95;100.00;62713.00;5083470;28;20511;-80
2023/01/04 09:42:04;;;;;;;15.23;10.55;;;;;;;7.07;100.00;62727.41;5095341;28;20271;-80
2023/01/04 09:44:42;;;;;;;18.77;10.32;;;;;;;7.13;100.00;62731.56;5108655;28;20256;-83
2023/01/04 09:47:14;;;;;;;14.77;9.45;;;;;;;7.22;100.00;62743.41;5080759;28;20223;-82
2023/01/04 09:49:49;;;;;;;16.42;9.85;;;;;;;7.16;100.00;62734.16;5095215;28;20268;-81
2023/01/04 09:52:21;;;;;;;14.63;10.65;;;;;;;6.95;100.00;62718.06;5089145;28;20243;-79
2023/01/04 09:55:02;;;;;;;22.45;10.80;;;;;;;7.23;100.00;62746.44;5090170;28;20197;-80
2023/01/04 09:57:34;;;;;;;15.15;11.23;;;;;;;7.40;100.00;62756.91;5099553;28;20214;-78
2023/01/04 10:00:13;;;;;;;16.52;9.75;;;;;;;7.54;100.00;62773.88;5073561;28;20189;-76
2023/01/04 10:02:47;;;;;;;10.38;6.85;;;;;;;7.00;100.00;62713.63;5103069;28;20216;-76
2023/01/04 10:05:21;;;;;;;14.90;9.55;;;;;;;7.19;100.00;62737.25;5107701;28;20196;-78
2023/01/04 10:07:50;;;;;;;16.48;8.73;;;;;;;7.12;100.00;62733.09;5087857;28;20386;-81
2023/01/04 10:10:21;;;;;;;12.85;9.40;;;;;;;7.18;100.00;62739.25;5074134;28;20231;-78
2023/01/04 10:13:00;;;;;;;11.85;8.70;;;;;;;7.37;100.00;62755.84;5086481;28;20417;-76
2023/01/04 10:15:38;;;;;;;10.38;8.00;;;;;;;7.48;100.00;62774.78;5075188;28;20235;-80
2023/01/04 10:18:22;;;;;;;11.18;8.13;;;;;;;7.58;100.00;62774.97;5084546;28;20367;-79
2023/01/04 10:21:08;;;;;;;11.73;8.68;;;;;;;7.81;100.00;62806.84;5103811;28;20261;-78
2023/01/04 10:23:52;;;;;;;13.20;9.07;;;;;;;7.92;100.00;62812.59;5079587;28;20410;-80
2023/01/04 10:26:25;;;;;;;9.95;7.95;;;;;;;7.83;100.00;62806.38;5107981;28;20220;-77
2023/01/04 10:29:26;;;;;;;14.00;8.98;;;;;;;7.80;100.00;62803.25;5091901;28;20204;-81
2023/01/04 10:32:01;;;;;;;12.13;8.52;;;;;;;8.10;100.00;62828.66;5078093;28;20283;-77
2023/01/04 10:34:38;;;;;;;11.63;8.80;;;;;;;8.14;100.00;62835.81;5093790;28;20204;-78
2023/01/04 10:37:19;;;;;;;14.05;9.52;;;;;;;8.33;100.00;62854.44;5081169;28;20216;-79
2023/01/04 10:39:47;;;;;;;9.63;7.72;;;;;;;7.76;100.00;62799.13;5073159;28;20192;-80
2023/01/04 10:42:21;;;;;;;12.40;9.05;;;;;;;8.06;100.00;62832.63;5088428;28;20223;-81
2023/01/04 10:45:09;;;;;;;11.93;7.80;;;;;;;8.18;100.00;62841.97;5092623;28;20207;-82
2023/01/04 10:47:44;;;;;;;14.25;8.75;;;;;;;8.14;100.00;62835.31;5080135;28;20219;-81
2023/01/04 10:50:25;;;;;;;9.73;7.80;;;;;;;7.90;100.00;62816.09;5084779;28;20199;-82
2023/01/04 10:53:01;;;;;;;11.20;8.30;;;;;;;8.17;100.00;62838.41;5092721;28;20231;-82
2023/01/04 10:55:45;;;;;;;14.30;8.60;;;;;;;8.28;100.00;62851.81;5081686;28;20209;-82
2023/01/04 10:58:19;;;;;;;11.00;7.85;;;;;;;8.28;100.00;62849.81;5109707;28;20185;-82
2023/01/04 11:00:52;;;;;;;11.05;7.93;;;;;;;8.14;100.00;62838.34;5091549;28;20249;-83
2023/01/04 11:03:30;;;;;;;11.30;7.68;;;;;;;8.02;100.00;62823.44;5086866;28;20212;-81
2023/01/04 11:06:02;;;;;;;12.98;7.80;;;;;;;8.05;100.00;62829.09;5077065;28;20299;-80
2023/01/04 11:08:34;;;;;;;11.63;8.10;;;;;;;7.40;100.00;62764.50;5071777;28;20212;-81
2023/01/04 11:11:08;;;;;;;12.70;9.32;;;;;;;7.22;100.00;62745.94;5087051;28;20218;-81
2023/01/04 11:13:37;;;;;;;11.52;8.55;;;;;;;7.36;100.00;62755.31;5093581;28;20232;-82
2023/01/04 11:16:08;;;;;;;15.60;10.32;;;;;;;7.30;100.00;62749.13;5089315;28;20213;-82
2023/01/04 11:18:45;;;;;;;13.88;9.18;;;;;;;7.33;100.00;62751.69;5082917;28;20252;-80
2023/01/04 11:21:15;;;;;;;15.77;10.70;;;;;;;7.29;100.00;62750.63;5091067;28;20230;-82
2023/01/04 11:23:42;;;;;;;16.85;10.55;;;;;;;7.28;100.00;62754.66;5076906;28;20264;-79
2023/01/04 11:26:14;;;;;;;16.48;10.95;;;;;;;7.50;100.00;62774.31;5102231;28;20588;-82
2023/01/04 11:28:49;;;;;;;16.63;11.45;;;;;;;7.72;100.00;62797.00;5093150;28;20232;-81
2023/01/04 11:31:24;;;;;;;16.25;11.25;;;;;;;7.58;100.00;62777.50;5083579;28;20295;-80
2023/01/04 11:33:56;;;;;;;13.73;10.57;;;;;;;7.65;100.00;62787.78;5072600;28;20335;-81
2023/01/04 11:36:45;;;;;;;12.45;9.07;;;;;;;7.81;100.00;62803.78;5073017;28;20546;-82
2023/01/04 11:39:20;;;;;;;14.00;8.93;;;;;;;8.12;100.00;62833.78;5073131;28;20205;-82
2023/01/04 11:41:56;;;;;;;14.07;9.13;;;;;;;7.89;100.00;62814.56;5090772;28;20216;-82
2023/01/04 11:44:24;;;;;;;14.98;10.02;;;;;;;7.87;100.00;62804.88;5082120;28;20299;-83
2023/01/04 11:47:06;;;;;;;10.60;8.55;;;;;;;7.97;100.00;62817.78;5104943;28;20223;-81
2023/01/04 11:49:37;;;;;;;13.18;9.07;;;;;;;8.35;100.00;62857.03;5106585;28;20222;-82
2023/01/04 11:52:09;;;;;;;14.63;9.55;;;;;;;8.45;100.00;62869.91;5095527;28;20253;-81
2023/01/04 11:54:36;;;;;;;13.35;9.07;;;;;;;8.43;100.00;62864.78;5099481;28;20197;-81
2023/01/04 11:57:09;;;;;;;10.02;8.10;;;;;;;8.34;100.00;62858.53;5079772;28;20213;-83
2023/01/04 11:59:39;;;;;;;9.50;7.57;;;;;;;8.14;100.00;62840.41;5095643;28;20201;-81
2023/01/04 12:02:21;;;;;;;11.27;8.07;;;;;;;7.94;100.00;62817.72;5112640;28;20216;-83
2023/01/04 12:04:52;;;;;;;8.80;7.15;;;;;;;8.14;100.00;62832.78;5111366;28;20223;-81
2023/01/04 12:07:28;;;;;;;10.18;7.50;;;;;;;7.97;100.00;62820.31;5093145;28;20219;-83
2023/01/04 12:09:56;;;;;;;13.38;8.32;;;;;;;8.10;100.00;62831.19;5105296;28;20468;-82
2023/01/04 12:12:28;;;;;;;12.32;8.57;;;;;;;8.11;100.00;62832.22;5083095;28;20255;-83
2023/01/04 12:14:57;;;;;;;11.68;7.75;;;;;;;8.07;100.00;62828.63;5072286;28;20229;-82
2023/01/04 12:17:29;;;;;;;11.10;7.72;;;;;;;8.11;100.00;62837.31;5100927;28;20246;-81
2023/01/04 12:19:58;;;;;;;8.57;7.03;;;;;;;8.06;100.00;62827.03;5086350;28;20209;-82
2023/01/04 12:22:35;;;;;;;10.52;7.25;;;;;;;8.32;100.00;62855.97;5075776;28;20266;-82
2023/01/04 12:25:03;;;;;;;10.00;7.97;;;;;;;8.29;100.00;62850.81;5080616;28;20204;-80
2023/01/04 12:27:30;;;;;;;9.23;6.85;;;;;;;7.97;100.00;62820.31;5071170;28;20505;-80
2023/01/04 12:29:59;;;;;;;12.63;8.02;;;;;;;8.26;100.00;62850.28;5094505;28;20196;-80
2023/01/04 12:32:44;;;;;;;10.30;7.45;;;;;;;8.50;100.00;62872.53;5093104;28;20213;-81
2023/01/04 12:36:03;;;;;;;8.93;7.85;;;;;;;8.68;100.00;62891.09;5085626;28;20200;-82
2023/01/04 12:39:00;;;;;;;9.88;8.00;;;;;;;8.83;100.00;62909.16;5072918;28;20447;-81